Time;durP1;ratioP1;P1;durP2;ratioP2;P2;SDS_P1;SDS_P2;PMS_P1;PMS_P2;Temp;Humidity;BMP_temperature;BMP_pressure;BME280_temperature;BME280_humidity;BME280_pressure;Samples;Min_cycle;Max_cycle;Signal;HPM_P1;HPM_P2
2023/03/14 00:01:16;;;;;;;7.72;1.77;;;;;;;10.64;92.78;98812.97;5015111;28;20033;-80
2023/03/14 00:03:42;;;;;;;8.30;1.42;;;;;;;10.78;92.13;98816.31;5031075;28;20040;-79
2023/03/14 00:06:08;;;;;;;8.30;2.10;;;;;;;10.71;92.34;98824.13;5040148;28;20040;-77
2023/03/14 00:08:34;;;;;;;11.73;2.30;;;;;;;10.79;94.57;98831.66;5027939;28;20039;-78
2023/03/14 00:11:20;;;;;;;4.38;1.15;;;;;;;10.64;98.17;98841.47;5044559;28;20047;-79
2023/03/14 00:13:51;;;;;;;10.98;1.45;;;;;;;10.39;100.00;98830.97;5024852;28;20500;-77
2023/03/14 00:16:16;;;;;;;8.23;1.52;;;;;;;10.18;100.00;98834.56;5017039;28;20034;-81
2023/03/14 00:18:42;;;;;;;8.18;1.35;;;;;;;10.06;100.00;98847.34;5026465;28;20036;-79
2023/03/14 00:21:09;;;;;;;11.25;1.35;;;;;;;9.80;100.00;98846.31;5052052;28;20028;-77
2023/03/14 00:23:36;;;;;;;5.57;0.77;;;;;;;9.62;100.00;98843.50;5045316;28;20044;-78
2023/03/14 00:26:08;;;;;;;6.45;0.80;;;;;;;9.52;100.00;98856.84;5029324;28;20483;-76
2023/03/14 00:28:34;;;;;;;7.18;0.93;;;;;;;9.37;100.00;98845.88;5013459;28;20095;-78
2023/03/14 00:31:05;;;;;;;8.02;0.82;;;;;;;9.42;100.00;98848.63;5030033;28;20398;-77
2023/03/14 00:33:33;;;;;;;2.97;0.75;;;;;;;9.37;100.00;98851.81;5028777;28;20025;-81
2023/03/14 00:36:01;;;;;;;7.55;1.00;;;;;;;9.31;100.00;98858.56;5027392;28;20111;-78
2023/03/14 00:38:30;;;;;;;6.60;1.40;;;;;;;9.30;100.00;98858.75;5033451;28;20025;-77
2023/03/14 00:40:57;;;;;;;6.53;1.00;;;;;;;9.30;100.00;98864.72;5032637;28;20674;-81
2023/03/14 00:43:23;;;;;;;10.95;1.35;;;;;;;9.21;100.00;98865.91;5015687;28;20075;-80
2023/03/14 00:45:52;;;;;;;8.30;1.65;;;;;;;9.16;100.00;98866.47;5009486;28;20068;-79
2023/03/14 00:48:19;;;;;;;9.98;1.60;;;;;;;9.09;100.00;98844.97;5054921;28;20064;-78
2023/03/14 00:50:46;;;;;;;15.45;2.47;;;;;;;9.12;100.00;98846.38;5014778;28;20033;-79
2023/03/14 00:53:17;;;;;;;9.75;1.55;;;;;;;9.08;100.00;98840.81;5024877;28;20064;-78
2023/03/14 00:55:44;;;;;;;5.70;1.23;;;;;;;9.05;100.00;98846.34;5029741;28;20037;-82
2023/03/14 00:58:15;;;;;;;8.93;1.42;;;;;;;9.02;100.00;98851.91;5033196;28;20033;-79
2023/03/14 01:00:41;;;;;;;4.45;1.02;;;;;;;8.98;100.00;98852.50;5027717;28;20131;-78
2023/03/14 01:03:07;;;;;;;10.57;1.38;;;;;;;8.93;100.00;98853.88;5006025;28;20021;-78
2023/03/14 01:05:33;;;;;;;6.57;0.98;;;;;;;8.95;100.00;98853.69;5005455;28;20087;-79
2023/03/14 01:08:01;;;;;;;7.93;1.10;;;;;;;8.91;100.00;98855.03;5022872;28;20088;-80
2023/03/14 01:10:26;;;;;;;7.28;1.77;;;;;;;8.86;100.00;98841.91;5025059;28;20037;-83
2023/03/14 01:12:52;;;;;;;4.38;0.77;;;;;;;8.80;100.00;98840.88;5033689;28;21370;-79
2023/03/14 01:15:17;;;;;;;5.03;0.75;;;;;;;8.87;100.00;98843.50;5028144;28;20041;-78
2023/03/14 01:17:43;;;;;;;7.38;1.35;;;;;;;8.84;100.00;98833.56;5007568;28;20040;-78
2023/03/14 01:20:12;;;;;;;9.43;1.30;;;;;;;8.93;100.00;98830.59;5030983;28;20443;-79
2023/03/14 01:22:39;;;;;;;12.95;1.02;;;;;;;8.89;100.00;98844.91;5031339;28;20048;-78
2023/03/14 01:25:07;;;;;;;6.05;1.00;;;;;;;8.85;100.00;98841.09;5039561;28;20786;-80
2023/03/14 01:27:33;;;;;;;8.68;2.05;;;;;;;8.91;100.00;98818.84;5019414;28;20064;-82
2023/03/14 01:29:58;;;;;;;5.45;0.73;;;;;;;8.86;100.00;98821.22;5032074;28;20127;-79
2023/03/14 01:32:25;;;;;;;8.20;1.23;;;;;;;8.93;100.00;98820.25;5014319;28;20040;-79
2023/03/14 01:34:58;;;;;;;10.88;1.55;;;;;;;8.89;100.00;98813.91;5020106;28;20080;-78
2023/03/14 01:37:24;;;;;;;10.48;1.23;;;;;;;9.00;100.00;98806.56;5016472;28;20110;-80
2023/03/14 01:39:49;;;;;;;7.60;0.88;;;;;;;9.00;100.00;98817.69;5050839;28;20033;-78
2023/03/14 01:42:16;;;;;;;6.63;1.20;;;;;;;8.94;100.00;98810.72;5017062;28;20037;-78
2023/03/14 01:44:50;;;;;;;11.90;2.05;;;;;;;8.96;100.00;98809.53;5032002;28;20124;-79
2023/03/14 01:47:15;;;;;;;7.78;0.95;;;;;;;9.01;100.00;98816.72;5030079;28;20036;-79
2023/03/14 01:49:43;;;;;;;12.52;1.60;;;;;;;8.96;100.00;98821.66;5025534;28;20091;-80
2023/03/14 01:52:19;;;;;;;8.80;1.08;;;;;;;8.87;100.00;98815.06;5030781;28;20029;-79
2023/03/14 01:54:53;;;;;;;4.63;1.13;;;;;;;8.95;100.00;98815.69;5033702;28;20115;-79
2023/03/14 01:57:48;;;;;;;9.85;1.40;;;;;;;8.93;100.00;98804.75;5035906;28;20024;-79
2023/03/14 02:00:21;;;;;;;9.85;1.98;;;;;;;8.93;100.00;98793.63;5057358;28;20045;-80
2023/03/14 02:02:51;;;;;;;8.82;1.05;;;;;;;8.95;100.00;98787.25;5036593;28;20021;-79
2023/03/14 02:05:22;;;;;;;13.48;1.70;;;;;;;9.01;100.00;98790.06;5016135;28;20493;-78
2023/03/14 02:07:59;;;;;;;9.32;1.80;;;;;;;9.09;100.00;98787.28;5037905;28;20053;-80
2023/03/14 02:10:41;;;;;;;8.98;1.48;;;;;;;9.09;100.00;98787.28;5034241;28;20049;-79
2023/03/14 02:13:08;;;;;;;14.73;1.63;;;;;;;8.95;100.00;98786.47;5041225;28;20028;-82
2023/03/14 02:15:52;;;;;;;13.55;1.70;;;;;;;8.97;100.00;98787.06;5031113;28;20044;-81
2023/03/14 02:18:33;;;;;;;8.15;1.17;;;;;;;8.92;100.00;98790.22;5036196;28;20033;-81
2023/03/14 02:21:38;;;;;;;10.38;1.48;;;;;;;9.02;100.00;98792.44;5034851;28;20075;-79
2023/03/14 02:24:24;;;;;;;10.40;1.65;;;;;;;8.94;100.00;98806.34;5017370;28;20116;-83
2023/03/14 02:27:06;;;;;;;10.02;1.70;;;;;;;8.95;100.00;98804.56;5029121;28;20044;-81
2023/03/14 02:29:35;;;;;;;10.38;1.25;;;;;;;8.93;100.00;98809.13;5016072;28;20438;-83
2023/03/14 02:32:02;;;;;;;11.05;1.92;;;;;;;8.91;100.00;98809.31;5032254;28;20093;-80
2023/03/14 02:34:28;;;;;;;8.38;1.95;;;;;;;9.03;100.00;98813.94;5025774;28;20120;-81
2023/03/14 02:36:54;;;;;;;9.95;1.63;;;;;;;8.99;100.00;98812.75;5034199;28;20279;-80
2023/03/14 02:39:27;;;;;;;10.35;1.77;;;;;;;9.02;100.00;98812.34;5013971;28;20067;-83
2023/03/14 02:41:53;;;;;;;8.85;1.40;;;;;;;9.07;100.00;98809.97;5048952;28;20040;-83
2023/03/14 02:44:18;;;;;;;18.00;1.98;;;;;;;9.02;100.00;98805.38;5033334;28;20038;-81
2023/03/14 02:46:44;;;;;;;11.38;1.42;;;;;;;9.06;100.00;98793.66;5018157;28;20122;-80
2023/03/14 02:49:13;;;;;;;9.82;1.67;;;;;;;9.07;100.00;98797.03;5017994;28;20033;-81
2023/03/14 02:51:41;;;;;;;10.93;2.13;;;;;;;9.02;100.00;98792.44;5049334;28;20029;-82
2023/03/14 02:54:07;;;;;;;9.50;2.05;;;;;;;9.02;100.00;98797.59;5016931;28;20033;-81
2023/03/14 02:56:33;;;;;;;8.77;1.70;;;;;;;8.99;100.00;98792.84;5020631;28;20090;-83
2023/03/14 02:59:03;;;;;;;9.43;2.58;;;;;;;8.93;100.00;98793.63;5033899;28;20041;-81
2023/03/14 03:01:41;;;;;;;8.23;1.90;;;;;;;8.91;100.00;98788.66;5043343;28;20044;-81
2023/03/14 03:04:07;;;;;;;8.10;1.38;;;;;;;8.96;100.00;98782.88;5038063;28;20041;-79
2023/03/14 03:06:32;;;;;;;7.63;1.10;;;;;;;8.90;100.00;98788.84;5018908;28;20195;-81
2023/03/14 03:08:59;;;;;;;5.30;1.20;;;;;;;9.00;100.00;98786.66;5030414;28;20498;-83
2023/03/14 03:11:25;;;;;;;8.25;1.88;;;;;;;8.93;100.00;98776.31;5020745;28;20047;-80
2023/03/14 03:13:50;;;;;;;4.10;1.13;;;;;;;8.96;100.00;98778.50;5015596;28;20029;-82
2023/03/14 03:16:16;;;;;;;8.15;1.50;;;;;;;8.96;100.00;98785.47;5027290;28;20036;-79
2023/03/14 03:18:42;;;;;;;6.72;1.23;;;;;;;9.01;100.00;98782.31;5013132;28;20033;-82
2023/03/14 03:21:09;;;;;;;7.95;2.20;;;;;;;8.95;100.00;98784.69;5037578;28;20045;-80
2023/03/14 03:23:34;;;;;;;10.38;1.40;;;;;;;9.08;100.00;98778.75;5025759;28;20505;-79
2023/03/14 03:26:00;;;;;;;5.53;1.35;;;;;;;8.96;100.00;98778.50;5011739;28;20068;-81
2023/03/14 03:28:26;;;;;;;8.93;1.23;;;;;;;8.93;100.00;98775.53;5009302;28;20029;-80
2023/03/14 03:30:52;;;;;;;9.13;1.38;;;;;;;8.99;100.00;98769.56;5032710;28;20025;-82
2023/03/14 03:33:17;;;;;;;11.90;1.60;;;;;;;9.04;100.00;98761.22;5019698;28;20037;-79
2023/03/14 03:35:49;;;;;;;13.65;1.70;;;;;;;8.91;100.00;98762.78;5006945;28;20435;-80
2023/03/14 03:38:20;;;;;;;10.07;1.70;;;;;;;8.86;100.00;98770.31;5029640;28;20029;-82
2023/03/14 03:40:47;;;;;;;14.60;2.00;;;;;;;8.93;100.00;98768.56;5011014;28;20407;-78
2023/03/14 03:43:12;;;;;;;9.02;1.55;;;;;;;8.93;100.00;98776.31;5016338;28;20040;-78
2023/03/14 03:45:41;;;;;;;8.32;1.88;;;;;;;8.76;100.00;98770.69;5028624;28;20033;-77
2023/03/14 03:48:06;;;;;;;7.15;1.02;;;;;;;8.67;100.00;98769.28;5033860;28;20040;-79
2023/03/14 03:50:32;;;;;;;5.00;0.82;;;;;;;8.73;100.00;98768.50;5009521;28;22294;-80
2023/03/14 03:52:57;;;;;;;9.90;1.30;;;;;;;8.72;100.00;98771.25;5035466;28;20036;-77
2023/03/14 03:55:23;;;;;;;3.47;0.85;;;;;;;8.57;100.00;98764.47;5016249;28;20041;-78
2023/03/14 03:57:48;;;;;;;8.15;1.30;;;;;;;8.54;100.00;98766.63;5034878;28;20532;-78
2023/03/14 04:00:14;;;;;;;8.73;1.17;;;;;;;8.53;100.00;98771.00;5029350;28;20429;-78
2023/03/14 04:02:39;;;;;;;6.50;0.75;;;;;;;8.43;100.00;98767.97;5052791;28;20040;-80
2023/03/14 04:05:06;;;;;;;2.10;0.68;;;;;;;8.43;100.00;98773.13;5014279;28;20398;-78
2023/03/14 04:07:32;;;;;;;9.27;0.93;;;;;;;8.46;100.00;98770.19;5031474;28;20025;-78
2023/03/14 04:09:59;;;;;;;4.05;0.82;;;;;;;8.39;100.00;98777.06;5023434;28;20029;-77
2023/03/14 04:12:37;;;;;;;5.30;1.10;;;;;;;8.37;100.00;98771.28;5029381;28;20108;-80
2023/03/14 04:15:17;;;;;;;7.63;0.80;;;;;;;8.25;100.00;98768.44;5032909;28;20033;-77
2023/03/14 04:17:46;;;;;;;3.72;0.57;;;;;;;8.19;100.00;98772.59;5034486;28;20038;-77
2023/03/14 04:20:13;;;;;;;1.40;0.57;;;;;;;8.27;100.00;98786.31;5033196;28;20435;-80
2023/03/14 04:22:40;;;;;;;3.83;0.77;;;;;;;8.21;100.00;98774.97;5016015;28;20041;-78
2023/03/14 04:25:06;;;;;;;3.20;0.73;;;;;;;8.19;100.00;98780.34;5018863;28;20034;-78
2023/03/14 04:27:35;;;;;;;9.10;0.70;;;;;;;8.18;100.00;98775.34;5024836;28;20043;-78
2023/03/14 04:30:04;;;;;;;6.75;0.65;;;;;;;8.09;100.00;98769.53;5011873;28;20025;-79
2023/03/14 04:32:48;;;;;;;4.32;0.88;;;;;;;8.09;100.00;98777.28;5027483;28;20402;-78
2023/03/14 04:35:14;;;;;;;4.18;1.52;;;;;;;8.06;100.00;98769.09;5009054;28;20083;-77
2023/03/14 04:37:43;;;;;;;4.07;0.65;;;;;;;8.00;100.00;98768.06;5015277;28;20033;-78
2023/03/14 04:40:10;;;;;;;1.38;0.40;;;;;;;7.93;100.00;98757.72;5017382;28;20579;-79
2023/03/14 04:42:36;;;;;;;6.70;0.65;;;;;;;7.92;100.00;98740.63;5030726;28;20442;-78
2023/03/14 04:45:02;;;;;;;1.17;0.55;;;;;;;7.92;100.00;98735.47;5008501;28;20037;-81
2023/03/14 04:47:30;;;;;;;4.72;1.15;;;;;;;8.01;100.00;98733.56;5033510;28;20044;-78
2023/03/14 04:49:56;;;;;;;1.98;0.47;;;;;;;8.02;100.00;98726.59;5034245;28;20056;-78
2023/03/14 04:52:23;;;;;;;1.65;0.43;;;;;;;7.98;100.00;98721.00;5032025;28;20029;-77
2023/03/14 04:54:49;;;;;;;6.90;0.60;;;;;;;8.01;100.00;98730.97;5025392;28;20601;-78
2023/03/14 04:57:15;;;;;;;1.67;0.60;;;;;;;7.95;100.00;98727.34;5029687;28;20036;-78
2023/03/14 04:59:42;;;;;;;2.00;0.60;;;;;;;8.02;100.00;98726.59;5011569;28;20044;-78
2023/03/14 05:02:24;;;;;;;;;;;;;;;8.00;100.00;98726.78;5020991;28;20541;-79
2023/03/14 05:05:10;;;;;;;7.63;1.10;;;;;;;8.14;100.00;98718.13;5044283;28;19920;-78
2023/03/14 05:08:01;;;;;;;4.38;1.00;;;;;;;8.06;100.00;98720.06;5036510;28;20078;-79
2023/03/14 05:10:55;;;;;;;3.60;0.93;;;;;;;8.10;100.00;98714.34;5031620;28;20036;-78
2023/03/14 05:13:46;;;;;;;5.80;1.13;;;;;;;8.13;100.00;98715.75;5028683;28;20025;-77
2023/03/14 05:16:30;;;;;;;1.35;0.82;;;;;;;8.09;100.00;98709.38;5037953;28;20121;-81
2023/03/14 05:19:19;;;;;;;3.97;1.00;;;;;;;8.19;100.00;98708.03;5001019;28;20414;-79
2023/03/14 05:22:17;;;;;;;4.13;0.80;;;;;;;8.16;100.00;98705.84;5002354;28;20092;-79
2023/03/14 05:24:48;;;;;;;4.43;1.63;;;;;;;8.20;100.00;98690.75;5047590;28;20044;-78
2023/03/14 05:27:29;;;;;;;3.20;1.50;;;;;;;8.18;100.00;98690.94;5019320;28;20041;-78
2023/03/14 05:30:13;;;;;;;3.15;0.60;;;;;;;8.28;100.00;98693.16;5034980;28;20044;-82
2023/03/14 05:32:51;;;;;;;1.98;0.50;;;;;;;8.35;100.00;98681.09;5036531;28;20040;-81
2023/03/14 05:35:29;;;;;;;3.15;0.70;;;;;;;8.30;100.00;98691.19;5018922;28;20021;-78
2023/03/14 05:37:54;;;;;;;1.55;0.38;;;;;;;8.31;100.00;98686.84;5029219;28;20423;-78
2023/03/14 05:40:52;;;;;;;2.83;0.75;;;;;;;8.33;100.00;98690.03;5013952;28;20099;-77
2023/03/14 05:43:39;;;;;;;0.50;0.30;;;;;;;8.38;100.00;98687.63;5037339;28;20029;-78
2023/03/14 05:46:07;;;;;;;2.88;1.17;;;;;;;8.36;100.00;98689.63;5043241;28;20048;-77
2023/03/14 05:48:59;;;;;;;2.15;0.40;;;;;;;8.28;100.00;98687.22;5029035;28;20048;-78
2023/03/14 05:51:45;;;;;;;2.70;0.60;;;;;;;8.38;100.00;98688.47;5026874;28;20032;-77
2023/03/14 05:54:23;;;;;;;2.30;0.90;;;;;;;8.35;100.00;98685.47;5023917;28;20033;-80
2023/03/14 05:57:07;;;;;;;1.92;0.70;;;;;;;8.42;100.00;98675.16;5042556;28;20043;-79
2023/03/14 05:59:58;;;;;;;1.50;0.90;;;;;;;8.45;100.00;98682.53;5016753;28;20110;-80
2023/03/14 06:02:45;;;;;;;2.17;0.63;;;;;;;8.45;100.00;98674.78;5034502;28;20120;-79
2023/03/14 06:05:19;;;;;;;1.50;0.47;;;;;;;8.38;100.00;98680.72;5017907;28;20064;-77
2023/03/14 06:07:45;;;;;;;3.05;0.50;;;;;;;8.36;100.00;98687.84;5017599;28;20037;-78
2023/03/14 06:10:11;;;;;;;1.42;0.50;;;;;;;8.39;100.00;98678.91;5045333;28;20045;-79
2023/03/14 06:12:37;;;;;;;2.90;0.47;;;;;;;8.43;100.00;98681.94;5039551;28;20024;-81
2023/03/14 06:15:03;;;;;;;2.38;0.68;;;;;;;8.47;100.00;98676.19;5033791;28;20032;-79
2023/03/14 06:17:29;;;;;;;1.50;0.45;;;;;;;8.41;100.00;98674.34;5046176;28;20029;-77
2023/03/14 06:20:02;;;;;;;0.70;0.32;;;;;;;8.51;100.00;98676.59;5011881;28;20052;-81
2023/03/14 06:22:29;;;;;;;2.28;0.40;;;;;;;8.45;100.00;98677.38;5036468;28;20116;-78
2023/03/14 06:24:55;;;;;;;0.45;0.40;;;;;;;8.47;100.00;98670.22;5035127;28;20037;-81
2023/03/14 06:27:21;;;;;;;1.45;0.40;;;;;;;8.46;100.00;98676.41;5024790;28;20025;-79
2023/03/14 06:29:48;;;;;;;2.67;0.40;;;;;;;8.47;100.00;98675.41;5026195;28;20039;-81
2023/03/14 06:32:13;;;;;;;0.50;0.30;;;;;;;8.48;100.00;98671.84;5031604;28;20041;-79
2023/03/14 06:34:39;;;;;;;3.17;0.40;;;;;;;8.52;100.00;98688.53;5033750;28;20047;-79
2023/03/14 06:37:05;;;;;;;0.73;0.30;;;;;;;8.55;100.00;98686.38;5047777;28;20041;-79
2023/03/14 06:39:31;;;;;;;0.50;0.30;;;;;;;8.60;100.00;98680.59;5045829;28;20033;-81
2023/03/14 06:42:06;;;;;;;2.05;0.40;;;;;;;8.54;100.00;98681.38;5024201;28;20021;-79
2023/03/14 06:44:32;;;;;;;1.30;0.60;;;;;;;8.57;100.00;98671.47;5028842;28;20037;-78
2023/03/14 06:46:58;;;;;;;2.10;0.57;;;;;;;8.59;100.00;98686.78;5017013;28;20029;-81
2023/03/14 06:49:24;;;;;;;1.67;0.52;;;;;;;8.65;100.00;98686.00;5019015;28;20044;-82
2023/03/14 06:51:52;;;;;;;0.77;0.45;;;;;;;8.67;100.00;98680.63;5018442;28;20111;-81
2023/03/14 06:54:18;;;;;;;2.35;0.70;;;;;;;8.74;100.00;98684.03;5054932;28;20033;-75
2023/03/14 06:56:43;;;;;;;1.65;0.70;;;;;;;8.65;100.00;98686.00;5011546;28;20095;-77
2023/03/14 06:59:09;;;;;;;1.05;0.50;;;;;;;8.64;100.00;98688.75;5032142;28;20036;-79
2023/03/14 07:01:35;;;;;;;3.72;0.80;;;;;;;8.69;100.00;98688.97;5039258;28;20102;-78
2023/03/14 07:04:10;;;;;;;2.22;0.80;;;;;;;8.65;100.00;98695.53;5037601;28;20246;-78
2023/03/14 07:06:43;;;;;;;2.10;0.70;;;;;;;8.73;100.00;98695.34;5055984;28;20045;-78
2023/03/14 07:09:12;;;;;;;1.52;0.80;;;;;;;8.83;100.00;98700.94;5041747;28;20071;-78
2023/03/14 07:11:43;;;;;;;1.30;0.70;;;;;;;8.79;100.00;98704.91;5046724;28;20033;-78
2023/03/14 07:14:08;;;;;;;1.17;0.60;;;;;;;8.81;100.00;98699.53;5018818;28;20166;-79
2023/03/14 07:16:34;;;;;;;1.45;0.90;;;;;;;8.81;100.00;98702.13;5012908;28;20060;-76
2023/03/14 07:19:00;;;;;;;1.83;0.77;;;;;;;8.77;100.00;98705.09;5029119;28;20041;-79
2023/03/14 07:21:26;;;;;;;1.60;0.80;;;;;;;8.85;100.00;98706.69;5028092;28;20567;-77
2023/03/14 07:23:51;;;;;;;2.15;0.50;;;;;;;8.88;100.00;98705.53;5041700;28;20116;-78
2023/03/14 07:26:17;;;;;;;4.57;0.60;;;;;;;8.91;100.00;98710.28;5030350;28;20062;-78
2023/03/14 07:28:48;;;;;;;1.33;0.63;;;;;;;8.85;100.00;98700.72;5030724;28;20399;-81
2023/03/14 07:31:17;;;;;;;1.92;0.90;;;;;;;8.91;100.00;98700.75;5013499;28;20086;-78
2023/03/14 07:33:42;;;;;;;1.45;0.70;;;;;;;8.92;100.00;98707.50;5032595;28;20025;-77
2023/03/14 07:36:08;;;;;;;1.23;0.70;;;;;;;8.91;100.00;98707.69;5035768;28;20021;-78
2023/03/14 07:38:34;;;;;;;2.85;1.40;;;;;;;8.90;100.00;98704.31;5042249;28;20384;-78
2023/03/14 07:41:09;;;;;;;0.80;0.73;;;;;;;8.97;100.00;98714.69;5044572;28;20052;-77
2023/03/14 07:43:40;;;;;;;2.42;1.30;;;;;;;9.06;100.00;98708.34;5057981;28;20159;-79
2023/03/14 07:46:06;;;;;;;1.55;1.08;;;;;;;9.09;100.00;98717.50;5035482;28;20132;-77
2023/03/14 07:48:31;;;;;;;0.80;0.70;;;;;;;9.11;100.00;98723.25;5046070;28;20052;-78
2023/03/14 07:50:57;;;;;;;2.00;1.00;;;;;;;9.20;100.00;98714.31;5041548;28;20414;-78
2023/03/14 07:53:23;;;;;;;2.63;0.90;;;;;;;9.21;100.00;98715.13;5049869;28;20047;-80
2023/03/14 07:55:51;;;;;;;2.90;1.00;;;;;;;9.29;100.00;98710.56;5029395;28;20040;-80
2023/03/14 07:58:17;;;;;;;4.05;1.27;;;;;;;9.30;100.00;98712.13;5038225;28;20517;-78
2023/03/14 08:00:43;;;;;;;5.57;1.05;;;;;;;9.39;100.00;98717.13;5033365;28;20040;-78
2023/03/14 08:03:08;;;;;;;2.60;1.20;;;;;;;9.41;100.00;98722.91;5023416;28;20127;-80
2023/03/14 08:05:35;;;;;;;1.25;1.08;;;;;;;9.42;100.00;98719.28;5032485;28;20037;-78
2023/03/14 08:08:01;;;;;;;1.40;1.10;;;;;;;9.35;100.00;98727.06;5009448;28;20558;-81
2023/03/14 08:10:28;;;;;;;1.83;1.05;;;;;;;9.51;100.00;98723.28;5032682;28;20037;-79
2023/03/14 08:12:55;;;;;;;1.55;0.90;;;;;;;9.51;100.00;98726.69;5043771;28;20052;-77
2023/03/14 08:15:21;;;;;;;2.85;1.00;;;;;;;9.58;100.00;98718.91;5028917;28;20455;-78
2023/03/14 08:17:50;;;;;;;1.88;1.10;;;;;;;9.62;100.00;98725.28;5029535;28;20566;-82
2023/03/14 08:20:20;;;;;;;3.30;1.05;;;;;;;9.61;100.00;98738.44;5038494;28;20041;-80
2023/03/14 08:22:46;;;;;;;1.83;1.00;;;;;;;9.52;100.00;98730.84;5014538;28;20045;-77
2023/03/14 08:25:12;;;;;;;2.67;1.17;;;;;;;9.54;100.00;98741.00;5014921;28;20029;-77
2023/03/14 08:27:38;;;;;;;1.88;1.05;;;;;;;9.57;100.00;98732.03;5029150;28;20044;-78
2023/03/14 08:30:09;;;;;;;2.97;1.25;;;;;;;9.52;100.00;98751.53;5027195;28;20105;-77
2023/03/14 08:32:36;;;;;;;1.63;0.90;;;;;;;9.59;100.00;98750.75;5026136;28;20033;-77
2023/03/14 08:35:03;;;;;;;2.53;1.05;;;;;;;9.61;100.00;98761.72;5026032;28;20120;-78
2023/03/14 08:37:31;;;;;;;3.22;1.08;;;;;;;9.61;100.00;98766.91;5026427;28;20033;-80
2023/03/14 08:39:56;;;;;;;2.97;1.35;;;;;;;9.55;100.00;98771.88;5018849;28;20549;-79
2023/03/14 08:42:22;;;;;;;2.47;1.20;;;;;;;9.51;100.00;98772.44;5015510;28;20029;-76
2023/03/14 08:44:47;;;;;;;1.60;1.10;;;;;;;9.60;100.00;98767.88;5044976;28;20056;-81
2023/03/14 08:47:13;;;;;;;2.67;1.65;;;;;;;9.60;100.00;98778.22;5051141;28;20036;-76
2023/03/14 08:49:38;;;;;;;4.47;1.17;;;;;;;9.68;100.00;98778.03;5047441;28;20678;-76
2023/03/14 08:52:05;;;;;;;3.28;1.13;;;;;;;9.60;100.00;98786.00;5015428;28;20035;-77
2023/03/14 08:54:30;;;;;;;4.65;1.15;;;;;;;9.53;100.00;98780.78;5009058;28;20037;-77
2023/03/14 08:56:57;;;;;;;2.15;1.20;;;;;;;9.50;100.00;98805.28;5028055;28;20042;-81
2023/03/14 08:59:23;;;;;;;3.88;1.30;;;;;;;9.57;100.00;98846.69;5055766;28;20032;-78
2023/03/14 09:01:48;;;;;;;2.03;0.50;;;;;;;9.18;100.00;98861.13;5046855;28;20032;-78
2023/03/14 09:04:14;;;;;;;5.20;0.30;;;;;;;8.79;100.00;98879.84;5032560;28;20525;-77
2023/03/14 09:06:40;;;;;;;1.17;0.38;;;;;;;8.57;100.00;98887.69;5029074;28;20029;-77
2023/03/14 09:09:06;;;;;;;1.27;0.60;;;;;;;8.44;100.00;98896.13;5033407;28;20042;-77
2023/03/14 09:11:32;;;;;;;2.05;0.20;;;;;;;8.36;100.00;98898.81;5046165;28;20549;-78
2023/03/14 09:13:58;;;;;;;2.22;0.30;;;;;;;8.22;100.00;98916.00;5037501;28;20172;-78
2023/03/14 09:16:23;;;;;;;1.75;0.50;;;;;;;8.11;100.00;98932.78;5013885;28;20048;-76
2023/03/14 09:18:49;;;;;;;0.20;0.20;;;;;;;7.98;100.00;98938.59;5060444;28;20112;-76
2023/03/14 09:21:15;;;;;;;4.70;1.05;;;;;;;7.89;100.00;98944.91;5019772;28;20045;-78
2023/03/14 09:23:41;;;;;;;2.90;0.55;;;;;;;7.99;100.00;98957.50;5034537;28;20033;-77
2023/03/14 09:26:07;;;;;;;0.68;0.40;;;;;;;7.95;100.00;98962.22;5033787;28;20025;-78
2023/03/14 09:28:33;;;;;;;1.40;0.80;;;;;;;7.93;100.00;98974.50;5031231;28;20477;-77
2023/03/14 09:31:05;;;;;;;1.17;0.57;;;;;;;7.79;100.00;98973.56;5033340;28;20151;-77
2023/03/14 09:33:31;;;;;;;1.70;0.60;;;;;;;7.71;100.00;98988.38;5043209;28;20035;-76
2023/03/14 09:35:59;;;;;;;4.80;0.60;;;;;;;7.73;100.00;99005.25;5033293;28;20025;-77
2023/03/14 09:38:26;;;;;;;3.78;0.77;;;;;;;7.61;100.00;99004.13;5030722;28;20402;-77
2023/03/14 09:40:53;;;;;;;3.22;1.10;;;;;;;7.61;100.00;99017.03;5030267;28;20037;-76
2023/03/14 09:43:22;;;;;;;1.83;1.00;;;;;;;7.65;100.00;99012.28;5010196;28;20044;-76
2023/03/14 09:45:48;;;;;;;1.98;1.00;;;;;;;7.51;100.00;99043.06;5045230;28;20041;-79
2023/03/14 09:48:18;;;;;;;2.70;1.00;;;;;;;7.49;100.00;99041.66;5034988;28;20033;-76
2023/03/14 09:50:48;;;;;;;3.15;0.77;;;;;;;7.40;100.00;99051.25;5047851;28;20037;-77
2023/03/14 09:53:26;;;;;;;2.10;0.90;;;;;;;7.29;100.00;99062.00;5015718;28;20041;-77
2023/03/14 09:55:53;;;;;;;1.77;0.68;;;;;;;7.36;100.00;99081.75;5029866;28;20052;-78
2023/03/14 09:58:24;;;;;;;3.35;0.90;;;;;;;7.53;100.00;99077.22;5050069;28;20033;-76
2023/03/14 10:00:53;;;;;;;1.60;1.20;;;;;;;7.59;100.00;99092.00;5045678;28;20041;-77
2023/03/14 10:03:29;;;;;;;3.78;1.30;;;;;;;7.75;100.00;99098.75;5049551;28;20665;-76
2023/03/14 10:05:55;;;;;;;1.40;1.00;;;;;;;7.85;100.00;99115.75;5046241;28;20037;-76
2023/03/14 10:08:21;;;;;;;3.25;1.33;;;;;;;7.88;100.00;99113.63;5046089;28;20040;-78
2023/03/14 10:10:46;;;;;;;3.83;1.35;;;;;;;7.78;100.00;99123.44;5022925;28;20037;-77
2023/03/14 10:13:26;;;;;;;2.97;1.35;;;;;;;7.72;100.00;99132.69;5046885;28;20025;-79
2023/03/14 10:15:53;;;;;;;5.47;1.20;;;;;;;7.64;100.00;99143.06;5064625;28;20029;-77
2023/03/14 10:18:18;;;;;;;5.45;1.73;;;;;;;7.73;100.00;99157.47;5046060;28;20037;-81
2023/03/14 10:20:47;;;;;;;2.40;1.40;;;;;;;7.83;100.00;99167.53;5025024;28;20041;-78
2023/03/14 10:23:12;;;;;;;8.57;2.30;;;;;;;7.73;100.00;99174.75;5015673;28;20078;-78
2023/03/14 10:26:00;;;;;;;4.13;1.80;;;;;;;7.71;100.00;99182.66;5034256;28;20128;-76
2023/03/14 10:28:28;;;;;;;10.65;2.00;;;;;;;7.83;100.00;99192.56;5029878;28;20422;-78
2023/03/14 10:30:55;;;;;;;5.63;2.13;;;;;;;7.82;100.00;99203.84;5035452;28;20045;-77
2023/03/14 10:33:24;;;;;;;3.05;2.22;;;;;;;7.86;100.00;99205.13;5024889;28;20499;-78
2023/03/14 10:36:00;;;;;;;5.50;2.65;;;;;;;7.59;100.00;99209.84;5028188;28;20030;-79
2023/03/14 10:38:31;;;;;;;6.90;4.05;;;;;;;7.63;100.00;99238.69;5030327;28;20040;-76
2023/03/14 10:40:59;;;;;;;4.30;2.50;;;;;;;7.60;100.00;99256.13;5029315;28;20652;-78
2023/03/14 10:43:34;;;;;;;4.35;1.48;;;;;;;7.45;100.00;99265.59;5033175;28;20120;-75
2023/03/14 10:46:08;;;;;;;6.50;1.60;;;;;;;7.29;100.00;99287.16;5046053;28;20041;-77
2023/03/14 10:48:54;;;;;;;6.05;0.77;;;;;;;6.92;100.00;99305.88;5047388;28;20049;-76
2023/03/14 10:51:28;;;;;;;2.33;0.60;;;;;;;6.95;100.00;99313.25;5047929;28;20121;-76
2023/03/14 10:54:00;;;;;;;2.15;0.80;;;;;;;6.83;100.00;99328.31;5045658;28;20025;-76
2023/03/14 10:56:32;;;;;;;2.05;0.77;;;;;;;6.94;100.00;99333.09;5025677;28;20399;-78
2023/03/14 10:58:58;;;;;;;3.35;1.08;;;;;;;6.98;100.00;99343.88;5014409;28;20149;-78
2023/03/14 11:01:44;;;;;;;9.52;1.10;;;;;;;6.77;100.00;99357.31;5047204;28;20029;-77
2023/03/14 11:04:35;;;;;;;8.93;1.40;;;;;;;6.82;100.00;99371.31;5016135;28;20452;-78
2023/03/14 11:07:07;;;;;;;6.10;1.05;;;;;;;6.81;100.00;99380.00;5015125;28;20387;-77
2023/03/14 11:10:09;;;;;;;4.28;1.33;;;;;;;6.89;100.00;99396.41;5014683;28;20036;-77
2023/03/14 11:13:02;;;;;;;6.90;1.00;;;;;;;6.89;100.00;99402.34;5037461;28;20037;-78
2023/03/14 11:15:37;;;;;;;7.55;2.15;;;;;;;6.88;100.00;99412.84;5030409;28;20518;-79
2023/03/14 11:18:34;;;;;;;3.97;1.05;;;;;;;6.76;100.00;99422.69;5032475;28;20025;-76
2023/03/14 11:21:09;;;;;;;5.32;1.10;;;;;;;6.71;100.00;99433.50;5026955;28;20500;-80
2023/03/14 11:23:47;;;;;;;9.00;1.00;;;;;;;6.58;100.00;99441.72;5042090;28;20048;-80
2023/03/14 11:26:29;;;;;;;4.78;1.00;;;;;;;6.75;100.00;99455.38;5019711;28;20122;-77
2023/03/14 11:29:11;;;;;;;3.10;0.87;;;;;;;6.90;100.00;99462.44;5016934;28;20699;-77
2023/03/14 11:31:40;;;;;;;6.77;0.80;;;;;;;6.94;100.00;99467.09;5029071;28;20829;-76
2023/03/14 11:34:10;;;;;;;8.45;0.90;;;;;;;6.91;100.00;99476.94;5026686;28;20040;-76
2023/03/14 11:36:43;;;;;;;4.10;0.60;;;;;;;7.01;100.00;99486.09;5015260;28;20029;-76
2023/03/14 11:39:17;;;;;;;2.72;0.73;;;;;;;6.99;100.00;99492.41;5008902;28;20163;-77
2023/03/14 11:41:48;;;;;;;3.80;0.52;;;;;;;6.93;100.00;99498.19;5042802;28;20116;-78
2023/03/14 11:44:19;;;;;;;2.90;0.70;;;;;;;6.97;100.00;99509.78;5031462;28;20414;-76
2023/03/14 11:46:54;;;;;;;5.03;1.25;;;;;;;6.88;100.00;99521.09;5036905;28;20119;-78